Time;durP1;ratioP1;P1;durP2;ratioP2;P2;SDS_P1;SDS_P2;PMS_P1;PMS_P2;Temp;Humidity;BMP_temperature;BMP_pressure;BME280_temperature;BME280_humidity;BME280_pressure;Samples;Min_cycle;Max_cycle;Signal;HPM_P1;HPM_P2
2023/10/03 00:01:37;;;;;;;10.90;6.93;;;;;;;;;;5115372;27;20410;-71
2023/10/03 00:04:03;;;;;;;9.65;6.40;;;;;;;;;;5116103;27;20024;-72
2023/10/03 00:06:28;;;;;;;9.48;6.53;;;;;;;;;;5114017;27;20150;-71
2023/10/03 00:08:54;;;;;;;9.07;6.13;;;;;;;;;;5112188;27;20118;-71
2023/10/03 00:11:20;;;;;;;8.68;6.43;;;;;;;;;;5114610;27;20023;-70
2023/10/03 00:13:46;;;;;;;7.72;5.85;;;;;;;;;;5117479;27;20039;-71
2023/10/03 00:16:11;;;;;;;8.18;6.07;;;;;;;;;;5117852;27;20364;-71
2023/10/03 00:18:37;;;;;;;9.10;6.00;;;;;;;;;;5118533;27;20034;-72
2023/10/03 00:21:03;;;;;;;8.40;6.15;;;;;;;;;;5115759;27;20023;-71
2023/10/03 00:23:28;;;;;;;11.90;6.57;;;;;;;;;;5111589;27;20499;-71
2023/10/03 00:25:59;;;;;;;9.93;6.88;;;;;;;;;;5117795;27;20027;-71
2023/10/03 00:28:26;;;;;;;9.02;6.38;;;;;;;;;;5105267;27;20409;-71
2023/10/03 00:30:51;;;;;;;11.68;6.80;;;;;;;;;;5115862;27;20019;-74
2023/10/03 00:33:17;;;;;;;11.10;6.35;;;;;;;;;;5117458;27;20910;-70
2023/10/03 00:35:42;;;;;;;8.90;6.18;;;;;;;;;;5116486;27;20102;-71
2023/10/03 00:38:13;;;;;;;8.75;6.22;;;;;;;;;;5111087;27;20038;-72
2023/10/03 00:40:39;;;;;;;10.88;5.95;;;;;;;;;;5109456;27;20033;-71
2023/10/03 00:43:04;;;;;;;10.40;6.38;;;;;;;;;;5112288;27;20030;-72
2023/10/03 00:45:31;;;;;;;9.52;6.30;;;;;;;;;;5112036;27;20449;-73
2023/10/03 00:48:01;;;;;;;11.75;6.53;;;;;;;;;;5115853;27;20168;-72
2023/10/03 00:50:27;;;;;;;11.50;6.40;;;;;;;;;;5113858;27;20102;-74
2023/10/03 00:52:55;;;;;;;11.57;6.40;;;;;;;;;;5110126;27;20034;-74
2023/10/03 00:55:21;;;;;;;10.20;6.22;;;;;;;;;;5114805;27;20087;-71
2023/10/03 00:57:47;;;;;;;10.18;6.85;;;;;;;;;;5112389;27;20465;-73
2023/10/03 01:00:16;;;;;;;9.23;6.53;;;;;;;;;;5115026;27;20027;-72
2023/10/03 01:02:49;;;;;;;9.60;6.78;;;;;;;;;;5115221;27;20386;-70
2023/10/03 01:05:18;;;;;;;12.73;6.75;;;;;;;;;;5108743;27;20031;-72
2023/10/03 01:07:49;;;;;;;;;;;;;;;;;;5114391;27;20027;-71
2023/10/03 01:10:17;;;;;;;10.88;6.60;;;;;;;;;;5116616;27;19908;-71
2023/10/03 01:12:44;;;;;;;9.35;6.53;;;;;;;;;;5113996;27;20022;-71
2023/10/03 01:15:19;;;;;;;12.27;6.38;;;;;;;;;;5112222;27;20417;-71
2023/10/03 01:17:57;;;;;;;8.73;6.55;;;;;;;;;;5102132;27;20109;-71
2023/10/03 01:20:29;;;;;;;10.65;6.78;;;;;;;;;;5102094;27;20038;-72
2023/10/03 01:22:55;;;;;;;9.60;6.60;;;;;;;;;;5103678;27;20043;-72
2023/10/03 01:25:21;;;;;;;9.80;6.40;;;;;;;;;;5110664;27;20076;-71
2023/10/03 01:27:46;;;;;;;10.40;6.25;;;;;;;;;;5114174;27;20148;-73
2023/10/03 01:30:12;;;;;;;7.22;5.60;;;;;;;;;;5114992;27;20031;-71
2023/10/03 01:32:44;;;;;;;13.15;6.88;;;;;;;;;;5113407;27;20028;-72
2023/10/03 01:35:11;;;;;;;10.48;6.13;;;;;;;;;;5112363;27;20883;-71
2023/10/03 01:37:39;;;;;;;9.25;5.63;;;;;;;;;;5113119;27;20380;-71
2023/10/03 01:40:27;;;;;;;12.50;6.15;;;;;;;;;;5107303;27;20023;-71
2023/10/03 01:42:52;;;;;;;10.05;6.45;;;;;;;;;;5107731;27;20030;-71
2023/10/03 01:45:26;;;;;;;8.60;6.43;;;;;;;;;;5140436;27;20126;-70
2023/10/03 01:47:51;;;;;;;10.57;7.18;;;;;;;;;;5114993;27;20076;-71
2023/10/03 01:50:18;;;;;;;11.60;7.10;;;;;;;;;;5112995;27;20027;-71
2023/10/03 01:52:46;;;;;;;13.77;8.85;;;;;;;;;;5112941;27;20549;-72
2023/10/03 01:55:12;;;;;;;9.35;6.57;;;;;;;;;;5113968;27;20942;-71
2023/10/03 01:57:41;;;;;;;12.45;7.00;;;;;;;;;;5113891;27;20076;-72
2023/10/03 02:00:20;;;;;;;12.55;7.25;;;;;;;;;;5114026;27;20477;-71
2023/10/03 02:02:46;;;;;;;9.43;6.55;;;;;;;;;;5115672;27;20042;-71
2023/10/03 02:05:12;;;;;;;10.48;6.07;;;;;;;;;;5114863;27;20027;-72
2023/10/03 02:07:39;;;;;;;8.40;5.85;;;;;;;;;;5112404;27;20480;-71
2023/10/03 02:10:05;;;;;;;10.18;6.03;;;;;;;;;;5115447;27;20057;-71
2023/10/03 02:12:30;;;;;;;9.15;6.43;;;;;;;;;;5113938;28;20410;-71
2023/10/03 02:14:55;;;;;;;7.80;5.78;;;;;;;;;;5113547;27;20023;-73
2023/10/03 02:17:21;;;;;;;9.95;6.43;;;;;;;;;;5113610;27;20145;-72
2023/10/03 02:19:48;;;;;;;8.95;6.13;;;;;;;;;;5108239;28;20046;-73
2023/10/03 02:22:13;;;;;;;10.38;6.70;;;;;;;;;;5108673;28;20038;-73
2023/10/03 02:24:38;;;;;;;12.02;6.10;;;;;;;;;;5105386;28;20358;-73
2023/10/03 02:27:06;;;;;;;9.55;6.45;;;;;;;;;;5111812;27;20038;-73
2023/10/03 02:29:31;;;;;;;10.25;6.95;;;;;;;;;;5106452;28;20027;-73
2023/10/03 02:31:58;;;;;;;12.07;7.32;;;;;;;;;;5110936;28;20449;-73
2023/10/03 02:34:23;;;;;;;10.30;7.22;;;;;;;;;;5113554;28;20133;-72
2023/10/03 02:36:48;;;;;;;12.45;6.47;;;;;;;;;;5113483;27;20160;-72
2023/10/03 02:39:14;;;;;;;8.80;6.75;;;;;;;;;;5104441;28;20031;-72
2023/10/03 02:41:39;;;;;;;12.93;7.20;;;;;;;;;;5102298;28;20023;-72
2023/10/03 02:44:07;;;;;;;10.02;7.45;;;;;;;;;;5102827;27;20031;-73
2023/10/03 02:46:33;;;;;;;11.13;7.72;;;;;;;;;;5101560;28;20065;-72
2023/10/03 02:48:59;;;;;;;10.13;7.50;;;;;;;;;;5101767;28;20042;-72
2023/10/03 02:51:24;;;;;;;14.57;8.40;;;;;;;;;;5107866;28;20035;-72
2023/10/03 02:53:51;;;;;;;13.15;8.65;;;;;;;;;;5110735;28;20034;-73
2023/10/03 02:56:16;;;;;;;10.40;7.00;;;;;;;;;;5104122;28;20024;-71
2023/10/03 02:58:41;;;;;;;9.68;7.15;;;;;;;;;;5115304;28;20338;-71
2023/10/03 03:01:07;;;;;;;10.30;7.35;;;;;;;;;;5109886;27;20091;-73
2023/10/03 03:03:32;;;;;;;11.73;6.70;;;;;;;;;;5119259;27;20181;-71
2023/10/03 03:06:03;;;;;;;8.80;6.30;;;;;;;;;;5116598;27;20019;-71
2023/10/03 03:08:29;;;;;;;10.85;6.43;;;;;;;;;;5116504;27;20066;-71
2023/10/03 03:10:55;;;;;;;9.70;6.95;;;;;;;;;;5115083;27;20440;-71
2023/10/03 03:13:26;;;;;;;12.25;6.78;;;;;;;;;;5110368;27;20027;-71
2023/10/03 03:15:59;;;;;;;10.77;6.90;;;;;;;;;;5115649;27;20031;-71
2023/10/03 03:18:25;;;;;;;10.75;6.70;;;;;;;;;;5114448;27;20032;-74
2023/10/03 03:20:57;;;;;;;10.85;7.13;;;;;;;;;;5103832;27;20118;-71
2023/10/03 03:23:37;;;;;;;10.20;6.93;;;;;;;;;;5108199;27;20095;-74
2023/10/03 03:26:17;;;;;;;10.93;6.95;;;;;;;;;;5112855;27;20027;-71
2023/10/03 03:28:45;;;;;;;10.35;7.03;;;;;;;;;;5113794;27;20051;-71
2023/10/03 03:31:44;;;;;;;9.93;6.90;;;;;;;;;;5116905;27;20476;-71
2023/10/03 03:34:03;;;;;;;9.88;6.60;;;;;;;;;;5114974;27;20564;-71
2023/10/03 03:36:30;;;;;;;9.05;6.70;;;;;;;;;;5117857;27;20130;-71
2023/10/03 03:38:56;;;;;;;10.60;7.15;;;;;;;;;;5115112;27;20607;-73
2023/10/03 03:41:21;;;;;;;9.68;6.85;;;;;;;;;;5112932;27;20031;-72
2023/10/03 03:43:48;;;;;;;11.88;6.97;;;;;;;;;;5114006;27;20120;-71
2023/10/03 03:46:14;;;;;;;13.23;7.15;;;;;;;;;;5115643;27;20035;-74
2023/10/03 03:48:40;;;;;;;9.13;6.38;;;;;;;;;;5115553;27;20027;-72
2023/10/03 03:51:06;;;;;;;8.73;7.05;;;;;;;;;;5113866;27;20023;-72
2023/10/03 03:53:33;;;;;;;10.85;6.82;;;;;;;;;;5102125;27;20039;-71
2023/10/03 03:55:59;;;;;;;14.57;7.93;;;;;;;;;;5105827;27;20080;-72
2023/10/03 03:58:24;;;;;;;15.40;7.55;;;;;;;;;;5104950;27;20653;-71
2023/10/03 04:00:52;;;;;;;13.55;8.45;;;;;;;;;;5105352;27;20080;-71
2023/10/03 04:03:19;;;;;;;15.73;12.35;;;;;;;;;;5104108;27;20419;-72
2023/10/03 04:05:46;;;;;;;11.57;9.70;;;;;;;;;;5104522;27;20020;-72
2023/10/03 04:08:12;;;;;;;12.05;8.63;;;;;;;;;;5112030;27;20422;-71
2023/10/03 04:10:37;;;;;;;11.40;7.05;;;;;;;;;;5113497;27;20110;-72
2023/10/03 04:13:08;;;;;;;13.93;7.90;;;;;;;;;;5116798;27;20346;-71
2023/10/03 04:15:33;;;;;;;10.23;7.90;;;;;;;;;;5115841;27;20118;-71
2023/10/03 04:17:58;;;;;;;10.68;7.53;;;;;;;;;;5115094;27;20156;-71
2023/10/03 04:20:35;;;;;;;11.80;7.60;;;;;;;;;;5116937;27;20422;-72
2023/10/03 04:23:02;;;;;;;11.15;7.88;;;;;;;;;;5110278;27;20035;-74
2023/10/03 04:25:28;;;;;;;11.98;8.60;;;;;;;;;;5116072;27;20477;-71
2023/10/03 04:27:54;;;;;;;10.68;7.35;;;;;;;;;;5114728;27;20023;-71
2023/10/03 04:30:21;;;;;;;11.50;7.22;;;;;;;;;;5113908;27;20027;-70
2023/10/03 04:32:50;;;;;;;13.95;7.70;;;;;;;;;;5104576;27;20035;-71
2023/10/03 04:35:17;;;;;;;9.88;7.55;;;;;;;;;;5112700;27;20043;-71
2023/10/03 04:37:43;;;;;;;14.20;7.22;;;;;;;;;;5113728;27;20019;-71
2023/10/03 04:40:10;;;;;;;12.45;7.25;;;;;;;;;;5112586;27;20030;-71
2023/10/03 04:42:38;;;;;;;14.05;8.55;;;;;;;;;;5112664;27;20035;-71
2023/10/03 04:45:07;;;;;;;13.25;9.15;;;;;;;;;;5114206;27;20516;-71
2023/10/03 04:47:33;;;;;;;13.43;8.85;;;;;;;;;;5103079;27;20072;-71
2023/10/03 04:50:01;;;;;;;17.58;7.75;;;;;;;;;;5112561;27;20027;-71
2023/10/03 04:52:27;;;;;;;12.25;7.70;;;;;;;;;;5091366;28;20332;-71
2023/10/03 04:54:52;;;;;;;11.18;7.10;;;;;;;;;;5088064;28;20019;-72
2023/10/03 04:57:17;;;;;;;12.40;7.13;;;;;;;;;;5084245;28;20025;-71
2023/10/03 04:59:43;;;;;;;9.40;6.65;;;;;;;;;;5074159;28;20036;-71
2023/10/03 05:02:10;;;;;;;9.27;6.60;;;;;;;;;;5077105;28;20024;-70
2023/10/03 05:04:35;;;;;;;13.82;7.40;;;;;;;;;;5084189;28;20020;-70
2023/10/03 05:07:01;;;;;;;11.93;7.13;;;;;;;;;;5077100;28;20017;-71
2023/10/03 05:09:30;;;;;;;10.45;6.57;;;;;;;;;;5089223;28;20135;-71
2023/10/03 05:11:55;;;;;;;15.70;9.00;;;;;;;;;;5081524;28;20020;-72
2023/10/03 05:14:21;;;;;;;13.48;8.00;;;;;;;;;;5087222;28;20077;-71
2023/10/03 05:16:50;;;;;;;11.68;7.85;;;;;;;;;;5096162;28;20022;-70
2023/10/03 05:19:16;;;;;;;11.60;7.18;;;;;;;;;;5087318;28;20032;-73
2023/10/03 05:21:43;;;;;;;9.85;6.63;;;;;;;;;;5081917;28;20027;-73
2023/10/03 05:24:11;;;;;;;15.30;7.68;;;;;;;;;;5089934;28;20016;-72
2023/10/03 05:26:39;;;;;;;12.35;7.95;;;;;;;;;;5096105;28;20447;-71
2023/10/03 05:29:05;;;;;;;12.95;7.10;;;;;;;;;;5096485;28;20029;-71
2023/10/03 05:31:30;;;;;;;11.07;7.40;;;;;;;;;;5088864;28;20032;-70
2023/10/03 05:33:56;;;;;;;10.35;6.75;;;;;;;;;;5081742;28;20058;-71
2023/10/03 05:36:22;;;;;;;11.73;8.05;;;;;;;;;;5084904;28;20062;-72
2023/10/03 05:38:47;;;;;;;13.20;7.63;;;;;;;;;;5094050;28;20028;-70
2023/10/03 05:41:23;;;;;;;12.80;7.82;;;;;;;;;;5091187;28;20062;-71
2023/10/03 05:43:48;;;;;;;12.63;8.02;;;;;;;;;;5093722;28;20031;-73
2023/10/03 05:46:14;;;;;;;10.77;7.28;;;;;;;;;;5090260;28;20495;-72
2023/10/03 05:48:40;;;;;;;13.10;7.75;;;;;;;;;;5093309;28;20043;-71
2023/10/03 05:51:08;;;;;;;12.10;7.82;;;;;;;;;;5096387;28;20027;-72
2023/10/03 05:53:34;;;;;;;14.35;8.23;;;;;;;;;;5095119;28;20486;-72
2023/10/03 05:55:59;;;;;;;14.75;8.10;;;;;;;;;;5092366;28;20024;-72
2023/10/03 05:58:25;;;;;;;11.68;8.35;;;;;;;;;;5093801;28;20339;-72
2023/10/03 06:00:50;;;;;;;13.77;8.50;;;;;;;;;;5092029;28;20051;-72
2023/10/03 06:03:16;;;;;;;12.20;7.53;;;;;;;;;;5091453;28;20349;-72
2023/10/03 06:05:42;;;;;;;9.82;8.05;;;;;;;;;;5093452;28;20061;-72
2023/10/03 06:08:09;;;;;;;12.38;7.90;;;;;;;;;;5091108;28;20016;-72
2023/10/03 06:10:34;;;;;;;9.95;7.95;;;;;;;;;;5095203;28;20103;-71
2023/10/03 06:12:59;;;;;;;12.85;9.65;;;;;;;;;;5094167;28;20111;-72
2023/10/03 06:15:25;;;;;;;12.23;9.52;;;;;;;;;;5094446;28;20028;-72
2023/10/03 06:17:52;;;;;;;18.63;11.65;;;;;;;;;;5094442;28;20032;-72
2023/10/03 06:20:17;;;;;;;15.18;9.82;;;;;;;;;;5093353;28;20039;-71
2023/10/03 06:22:43;;;;;;;12.32;9.65;;;;;;;;;;5094322;28;20338;-72
2023/10/03 06:25:08;;;;;;;12.82;8.25;;;;;;;;;;5094242;28;20435;-72
2023/10/03 06:27:34;;;;;;;26.73;8.68;;;;;;;;;;5094441;28;20456;-72
2023/10/03 06:29:59;;;;;;;14.20;8.85;;;;;;;;;;5094112;28;20032;-72
2023/10/03 06:32:25;;;;;;;13.10;8.45;;;;;;;;;;5092244;28;20045;-72
2023/10/03 06:34:50;;;;;;;12.40;7.85;;;;;;;;;;5096325;28;20118;-72
2023/10/03 06:37:16;;;;;;;18.42;9.68;;;;;;;;;;5098869;28;20028;-72
2023/10/03 06:39:42;;;;;;;17.40;9.95;;;;;;;;;;5099837;28;20473;-71
2023/10/03 06:42:07;;;;;;;18.77;9.50;;;;;;;;;;5097509;28;20023;-72
2023/10/03 06:44:33;;;;;;;16.15;9.75;;;;;;;;;;5094104;28;20109;-72
2023/10/03 06:46:58;;;;;;;19.73;9.05;;;;;;;;;;5098583;28;20058;-71
2023/10/03 06:49:24;;;;;;;14.75;8.30;;;;;;;;;;5098667;28;20038;-72
2023/10/03 06:51:57;;;;;;;14.95;8.43;;;;;;;;;;5096560;28;20127;-71
2023/10/03 06:54:23;;;;;;;10.13;7.13;;;;;;;;;;5097510;28;20024;-72
2023/10/03 06:56:49;;;;;;;16.50;8.60;;;;;;;;;;5100234;28;20465;-73
2023/10/03 06:59:15;;;;;;;9.35;7.40;;;;;;;;;;5095954;28;20081;-72
2023/10/03 07:01:41;;;;;;;10.82;7.20;;;;;;;;;;5099120;28;20374;-73
2023/10/03 07:04:10;;;;;;;15.15;7.32;;;;;;;;;;5097305;28;20028;-72
2023/10/03 07:06:35;;;;;;;21.92;8.55;;;;;;;;;;5096693;28;20063;-72
2023/10/03 07:09:05;;;;;;;17.83;7.60;;;;;;;;;;5097130;28;20080;-72
2023/10/03 07:11:30;;;;;;;;;;;;;;;;;;5096319;28;20064;-71
2023/10/03 07:13:56;;;;;;;11.27;7.10;;;;;;;;;;5098124;28;19924;-72
2023/10/03 07:16:21;;;;;;;12.35;7.35;;;;;;;;;;5096317;28;20445;-71
2023/10/03 07:18:47;;;;;;;12.02;7.18;;;;;;;;;;5098832;28;20019;-71
2023/10/03 07:21:15;;;;;;;13.02;7.95;;;;;;;;;;5097639;28;20020;-72
2023/10/03 07:23:40;;;;;;;11.38;7.25;;;;;;;;;;5098373;28;20035;-71
2023/10/03 07:26:06;;;;;;;10.80;6.55;;;;;;;;;;5099795;28;20057;-71
2023/10/03 07:28:32;;;;;;;10.57;7.20;;;;;;;;;;5096190;28;20085;-71
2023/10/03 07:30:57;;;;;;;9.35;6.70;;;;;;;;;;5098681;27;20102;-72
2023/10/03 07:33:23;;;;;;;12.95;6.63;;;;;;;;;;5097644;28;20048;-71
2023/10/03 07:35:48;;;;;;;8.50;5.95;;;;;;;;;;5098114;28;20031;-72
2023/10/03 07:38:14;;;;;;;14.32;7.07;;;;;;;;;;5097150;28;20092;-71
2023/10/03 07:40:42;;;;;;;13.00;7.28;;;;;;;;;;5095164;28;20088;-72
2023/10/03 07:43:12;;;;;;;17.15;8.35;;;;;;;;;;5098466;28;20447;-72
2023/10/03 07:45:37;;;;;;;21.38;8.63;;;;;;;;;;5097301;28;20803;-71
2023/10/03 07:48:06;;;;;;;23.00;9.40;;;;;;;;;;5095508;28;20024;-73
2023/10/03 07:50:35;;;;;;;22.05;9.60;;;;;;;;;;5096648;28;20451;-72
2023/10/03 07:53:03;;;;;;;14.05;7.95;;;;;;;;;;5094757;28;20683;-73
2023/10/03 07:55:29;;;;;;;14.57;8.43;;;;;;;;;;5097642;28;20039;-71
2023/10/03 07:57:57;;;;;;;12.68;7.32;;;;;;;;;;5096823;28;20092;-72
2023/10/03 08:00:26;;;;;;;19.85;8.65;;;;;;;;;;5095648;28;20119;-71
2023/10/03 08:02:51;;;;;;;18.00;10.33;;;;;;;;;;5098682;28;20038;-72
2023/10/03 08:05:17;;;;;;;24.80;10.35;;;;;;;;;;5097227;28;20265;-73
2023/10/03 08:07:47;;;;;;;15.73;10.80;;;;;;;;;;5099668;28;20020;-72
2023/10/03 08:10:14;;;;;;;8.85;6.38;;;;;;;;;;5095593;28;20030;-73
2023/10/03 08:12:40;;;;;;;11.07;6.18;;;;;;;;;;5097983;28;20442;-72
2023/10/03 08:15:16;;;;;;;9.75;6.88;;;;;;;;;;5096903;28;20059;-71
2023/10/03 08:17:44;;;;;;;12.55;7.38;;;;;;;;;;5096000;28;20377;-72
2023/10/03 08:20:14;;;;;;;11.75;6.68;;;;;;;;;;5097359;28;20020;-74
2023/10/03 08:22:41;;;;;;;11.90;7.47;;;;;;;;;;5097284;28;20061;-73
2023/10/03 08:25:07;;;;;;;10.93;6.35;;;;;;;;;;5099859;28;20675;-74
2023/10/03 08:27:32;;;;;;;9.48;6.13;;;;;;;;;;5098582;28;20449;-73
2023/10/03 08:30:00;;;;;;;11.15;6.10;;;;;;;;;;5095585;28;20069;-73
2023/10/03 08:32:26;;;;;;;9.35;6.28;;;;;;;;;;5096646;28;20126;-76
2023/10/03 08:34:52;;;;;;;11.00;8.07;;;;;;;;;;5096373;28;20150;-73
2023/10/03 08:37:23;;;;;;;10.40;6.93;;;;;;;;;;5096867;28;20036;-71
2023/10/03 08:39:51;;;;;;;9.13;6.40;;;;;;;;;;5098263;28;20039;-71
2023/10/03 08:42:34;;;;;;;11.27;6.33;;;;;;;;;;5098175;28;20043;-73
2023/10/03 08:45:16;;;;;;;9.68;6.93;;;;;;;;;;5097634;28;20031;-71
2023/10/03 08:47:47;;;;;;;12.07;6.78;;;;;;;;;;5096504;28;20189;-71
2023/10/03 08:50:14;;;;;;;14.35;6.53;;;;;;;;;;5098022;28;20028;-71
2023/10/03 08:52:49;;;;;;;19.23;7.25;;;;;;;;;;5096274;28;20173;-72
2023/10/03 08:55:15;;;;;;;14.35;6.72;;;;;;;;;;5098639;28;20042;-73
2023/10/03 08:57:41;;;;;;;10.35;6.75;;;;;;;;;;5095595;28;20035;-70
2023/10/03 09:00:09;;;;;;;29.15;8.75;;;;;;;;;;5096828;28;20031;-71
2023/10/03 09:02:45;;;;;;;10.98;6.60;;;;;;;;;;5099502;27;20074;-71
2023/10/03 09:05:17;;;;;;;10.00;6.03;;;;;;;;;;5093957;28;20035;-71
2023/10/03 09:07:44;;;;;;;12.07;6.63;;;;;;;;;;5095462;28;20490;-71
2023/10/03 09:10:20;;;;;;;15.23;8.00;;;;;;;;;;5096432;28;20132;-72
2023/10/03 09:12:45;;;;;;;10.48;6.38;;;;;;;;;;5096513;28;20066;-70
2023/10/03 09:15:11;;;;;;;13.25;7.75;;;;;;;;;;5095080;28;20027;-71
2023/10/03 09:17:36;;;;;;;10.15;6.55;;;;;;;;;;5098314;27;20076;-71
2023/10/03 09:20:04;;;;;;;11.60;6.53;;;;;;;;;;5095501;28;20019;-71
2023/10/03 09:22:33;;;;;;;9.68;6.10;;;;;;;;;;5096906;28;20032;-71
2023/10/03 09:24:58;;;;;;;14.38;7.45;;;;;;;;;;5095727;28;20109;-72
2023/10/03 09:27:30;;;;;;;9.15;6.30;;;;;;;;;;5094076;28;20032;-70
2023/10/03 09:29:58;;;;;;;15.40;6.10;;;;;;;;;;5097024;28;20032;-72
2023/10/03 09:32:24;;;;;;;10.68;5.95;;;;;;;;;;5095627;28;20687;-72
2023/10/03 09:34:56;;;;;;;17.95;8.30;;;;;;;;;;5097428;28;20054;-71
2023/10/03 09:37:28;;;;;;;10.63;6.25;;;;;;;;;;5096412;28;20030;-71
2023/10/03 09:39:57;;;;;;;10.10;6.88;;;;;;;;;;5094271;28;20054;-72
2023/10/03 09:42:24;;;;;;;8.23;6.28;;;;;;;;;;5096053;28;20024;-71
2023/10/03 09:44:51;;;;;;;8.68;6.20;;;;;;;;;;5095546;28;20021;-72
2023/10/03 09:47:19;;;;;;;9.65;6.07;;;;;;;;;;5093947;28;20019;-71
2023/10/03 09:49:46;;;;;;;10.77;6.47;;;;;;;;;;5093411;28;20019;-72
2023/10/03 09:52:26;;;;;;;9.98;6.40;;;;;;;;;;5095354;28;20105;-72
2023/10/03 09:54:55;;;;;;;9.98;6.80;;;;;;;;;;5095178;28;20910;-71
2023/10/03 09:57:21;;;;;;;9.25;6.72;;;;;;;;;;5095157;28;20374;-71
2023/10/03 09:59:48;;;;;;;13.82;7.18;;;;;;;;;;5094769;28;20022;-71
2023/10/03 10:02:19;;;;;;;9.20;7.20;;;;;;;;;;5094272;28;20055;-72
2023/10/03 10:04:47;;;;;;;13.52;6.82;;;;;;;;;;5094633;28;20081;-73
2023/10/03 10:07:27;;;;;;;11.77;6.60;;;;;;;;;;5093016;28;20050;-71
2023/10/03 10:10:07;;;;;;;9.95;6.55;;;;;;;;;;5093892;28;20039;-71
2023/10/03 10:12:37;;;;;;;9.45;5.80;;;;;;;;;;5096015;28;20032;-72
2023/10/03 10:17:45;;;;;;;13.63;7.38;;;;;;;;;;5096362;28;20043;-72
2023/10/03 10:20:10;;;;;;;10.98;9.60;;;;;;;;;;5096760;28;20034;-71
2023/10/03 10:22:54;;;;;;;12.88;8.82;;;;;;;;;;5096418;28;20027;-73
2023/10/03 10:25:26;;;;;;;10.60;7.43;;;;;;;;;;5095750;28;20020;-72
2023/10/03 10:28:07;;;;;;;9.52;7.22;;;;;;;;;;5095289;28;20016;-73
2023/10/03 10:30:37;;;;;;;9.13;6.35;;;;;;;;;;5094185;28;20025;-71
2023/10/03 10:33:15;;;;;;;10.60;6.63;;;;;;;;;;5092728;28;20043;-71
2023/10/03 10:35:49;;;;;;;9.60;6.22;;;;;;;;;;5095143;28;20016;-72
2023/10/03 10:38:15;;;;;;;11.35;7.00;;;;;;;;;;5094290;28;20031;-72
2023/10/03 10:41:01;;;;;;;9.85;6.57;;;;;;;;;;5084244;28;20032;-72
2023/10/03 10:43:28;;;;;;;11.40;6.50;;;;;;;;;;5072583;28;20051;-73
2023/10/03 10:46:14;;;;;;;12.50;7.13;;;;;;;;;;5072503;28;20024;-72
2023/10/03 10:48:39;;;;;;;12.80;6.85;;;;;;;;;;5076424;28;20019;-72
2023/10/03 10:51:04;;;;;;;9.60;7.20;;;;;;;;;;5071813;28;22952;-71
2023/10/03 10:53:39;;;;;;;14.85;7.18;;;;;;;;;;5076418;28;20350;-75
2023/10/03 10:56:08;;;;;;;9.77;7.20;;;;;;;;;;5073309;28;20034;-71
2023/10/03 10:58:50;;;;;;;12.65;6.93;;;;;;;;;;5071835;28;20492;-70
2023/10/03 11:01:16;;;;;;;12.13;6.65;;;;;;;;;;5074351;28;20049;-72
2023/10/03 11:03:43;;;;;;;10.55;7.15;;;;;;;;;;5071016;28;20023;-72
2023/10/03 11:06:18;;;;;;;8.55;6.45;;;;;;;;;;5073659;28;20081;-73
2023/10/03 11:08:50;;;;;;;9.93;6.40;;;;;;;;;;5071370;28;20318;-72
2023/10/03 11:11:16;;;;;;;9.63;6.95;;;;;;;;;;5071734;28;20055;-72
2023/10/03 11:13:48;;;;;;;9.52;6.97;;;;;;;;;;5071336;28;20051;-71
2023/10/03 11:16:20;;;;;;;10.63;7.03;;;;;;;;;;5076351;28;20054;-75
2023/10/03 11:18:46;;;;;;;8.10;7.07;;;;;;;;;;5072186;28;20024;-72
2023/10/03 11:21:12;;;;;;;8.70;7.00;;;;;;;;;;5078950;28;20030;-73
2023/10/03 11:23:37;;;;;;;9.90;7.05;;;;;;;;;;5076974;28;20106;-73
2023/10/03 11:26:05;;;;;;;12.70;7.63;;;;;;;;;;5075102;28;20031;-73
2023/10/03 11:28:43;;;;;;;8.90;7.00;;;;;;;;;;5075803;28;20028;-75
2023/10/03 11:31:13;;;;;;;11.73;7.05;;;;;;;;;;5076319;27;20404;-73
2023/10/03 11:33:45;;;;;;;10.43;6.90;;;;;;;;;;5074923;28;20054;-74
2023/10/03 11:36:11;;;;;;;8.85;6.25;;;;;;;;;;5074530;28;20078;-72
2023/10/03 11:38:46;;;;;;;11.65;7.30;;;;;;;;;;5074014;28;20024;-71
2023/10/03 11:41:11;;;;;;;9.45;7.03;;;;;;;;;;5070120;28;20036;-72
2023/10/03 11:43:46;;;;;;;8.68;7.20;;;;;;;;;;5071354;28;20076;-71
2023/10/03 11:46:11;;;;;;;9.80;7.18;;;;;;;;;;5077128;28;20053;-73
2023/10/03 11:48:36;;;;;;;10.15;7.07;;;;;;;;;;5078010;28;20020;-75
2023/10/03 11:51:02;;;;;;;9.57;6.63;;;;;;;;;;5079240;27;20432;-73
2023/10/03 11:53:27;;;;;;;9.95;7.18;;;;;;;;;;5082024;28;20458;-73
2023/10/03 11:55:53;;;;;;;9.52;7.20;;;;;;;;;;5085491;27;20028;-71
2023/10/03 11:58:18;;;;;;;8.13;7.07;;;;;;;;;;5091222;28;20024;-74
2023/10/03 12:00:44;;;;;;;8.07;6.70;;;;;;;;;;5074869;28;20415;-71
2023/10/03 12:03:10;;;;;;;9.68;7.40;;;;;;;;;;5078165;28;20024;-72
2023/10/03 12:05:36;;;;;;;10.57;7.78;;;;;;;;;;5075708;28;20035;-73
2023/10/03 12:08:03;;;;;;;9.35;7.40;;;;;;;;;;5078970;28;20541;-72
2023/10/03 12:10:31;;;;;;;10.50;7.30;;;;;;;;;;5074022;28;20023;-73
2023/10/03 12:12:57;;;;;;;10.38;7.30;;;;;;;;;;5075753;28;20495;-75
2023/10/03 12:15:24;;;;;;;10.68;7.45;;;;;;;;;;5077063;28;20043;-74
2023/10/03 12:17:50;;;;;;;9.48;7.75;;;;;;;;;;5074436;28;20031;-75
2023/10/03 12:20:16;;;;;;;9.25;7.03;;;;;;;;;;5076861;28;20342;-73
2023/10/03 12:22:47;;;;;;;15.20;7.85;;;;;;;;;;5076446;28;20043;-75
2023/10/03 12:25:13;;;;;;;11.75;7.70;;;;;;;;;;5071989;28;20024;-77
2023/10/03 12:27:41;;;;;;;10.60;7.05;;;;;;;;;;5072286;28;20421;-72
2023/10/03 12:30:10;;;;;;;11.60;7.38;;;;;;;;;;5073933;28;20039;-72
2023/10/03 12:32:39;;;;;;;16.67;8.90;;;;;;;;;;5073387;28;20039;-72
2023/10/03 12:35:04;;;;;;;;;;;;;;;;;;5077486;28;20052;-71
2023/10/03 12:37:30;;;;;;;11.30;7.63;;;;;;;;;;5075222;28;19912;-72
2023/10/03 12:40:01;;;;;;;8.85;7.15;;;;;;;;;;5072512;28;20058;-74
2023/10/03 12:42:28;;;;;;;14.07;8.15;;;;;;;;;;5074983;28;20020;-70
2023/10/03 12:44:56;;;;;;;10.77;7.88;;;;;;;;;;5084985;28;20107;-72
2023/10/03 12:47:21;;;;;;;11.52;7.90;;;;;;;;;;5100004;28;20020;-70
2023/10/03 12:49:47;;;;;;;9.40;8.07;;;;;;;;;;5087570;28;20412;-71
2023/10/03 12:52:12;;;;;;;9.23;7.32;;;;;;;;;;5084253;28;20030;-70
2023/10/03 12:54:38;;;;;;;10.95;7.68;;;;;;;;;;5098809;28;20027;-71
2023/10/03 12:57:05;;;;;;;12.77;7.22;;;;;;;;;;5086007;28;20027;-72
2023/10/03 12:59:31;;;;;;;9.77;6.93;;;;;;;;;;5094255;28;21044;-71
2023/10/03 13:01:57;;;;;;;10.60;7.50;;;;;;;;;;5092136;28;20602;-72
2023/10/03 13:04:23;;;;;;;10.25;8.40;;;;;;;;;;5074137;28;20024;-72
2023/10/03 13:06:50;;;;;;;11.10;7.15;;;;;;;;;;5076343;28;20427;-71
2023/10/03 13:09:16;;;;;;;10.13;7.38;;;;;;;;;;5071435;28;20038;-71
2023/10/03 13:11:42;;;;;;;8.68;7.13;;;;;;;;;;5092572;28;20042;-73
2023/10/03 13:14:09;;;;;;;9.40;7.13;;;;;;;;;;5096657;28;20031;-73
2023/10/03 13:16:34;;;;;;;11.48;8.07;;;;;;;;;;5096307;28;20020;-72
2023/10/03 13:19:01;;;;;;;8.82;7.25;;;;;;;;;;5082404;28;20024;-73
2023/10/03 13:21:26;;;;;;;9.10;7.10;;;;;;;;;;5069487;28;20028;-73
2023/10/03 13:23:52;;;;;;;10.55;7.50;;;;;;;;;;5073738;28;20355;-72
2023/10/03 13:26:17;;;;;;;10.82;7.63;;;;;;;;;;5077786;28;20023;-72
2023/10/03 13:28:43;;;;;;;10.77;7.93;;;;;;;;;;5078697;28;20058;-72
2023/10/03 13:31:08;;;;;;;12.00;8.70;;;;;;;;;;5082235;28;20031;-72
2023/10/03 13:33:36;;;;;;;13.23;8.35;;;;;;;;;;5080622;28;20142;-73
2023/10/03 13:36:01;;;;;;;9.68;7.50;;;;;;;;;;5078483;28;20085;-74
2023/10/03 13:38:29;;;;;;;22.77;16.92;;;;;;;;;;5075124;28;20409;-73
2023/10/03 13:40:54;;;;;;;17.00;10.68;;;;;;;;;;5088813;28;20032;-74
2023/10/03 13:43:21;;;;;;;13.30;9.85;;;;;;;;;;5089536;28;20024;-76
2023/10/03 13:45:48;;;;;;;20.35;17.73;;;;;;;;;;5075853;28;20446;-76
2023/10/03 13:48:13;;;;;;;11.35;8.85;;;;;;;;;;5092458;28;20028;-76
2023/10/03 13:50:40;;;;;;;10.90;7.53;;;;;;;;;;5083256;28;20042;-73
2023/10/03 13:53:09;;;;;;;12.02;8.23;;;;;;;;;;5069837;28;20028;-72
2023/10/03 13:55:35;;;;;;;15.30;8.18;;;;;;;;;;5079099;28;20468;-74
2023/10/03 13:58:01;;;;;;;9.55;7.05;;;;;;;;;;5096974;28;20107;-74
2023/10/03 14:00:28;;;;;;;11.90;8.02;;;;;;;;;;5094561;28;20020;-74
2023/10/03 14:02:55;;;;;;;10.25;7.40;;;;;;;;;;5093635;28;20043;-73
2023/10/03 14:05:20;;;;;;;9.25;7.18;;;;;;;;;;5092629;28;20030;-73
2023/10/03 14:07:46;;;;;;;10.68;7.45;;;;;;;;;;5085135;28;20020;-74
2023/10/03 14:10:14;;;;;;;11.00;7.43;;;;;;;;;;5094313;28;20064;-74
2023/10/03 14:12:40;;;;;;;16.60;8.13;;;;;;;;;;5095413;28;20032;-74
2023/10/03 14:15:09;;;;;;;10.00;7.65;;;;;;;;;;5096785;28;20061;-72
2023/10/03 14:17:35;;;;;;;9.50;7.18;;;;;;;;;;5094782;28;20407;-72
2023/10/03 14:20:00;;;;;;;11.48;7.38;;;;;;;;;;5088733;28;20031;-73
2023/10/03 14:22:25;;;;;;;11.90;7.22;;;;;;;;;;5097363;28;20035;-73
2023/10/03 14:24:51;;;;;;;11.10;7.38;;;;;;;;;;5096390;28;20470;-74
2023/10/03 14:27:16;;;;;;;9.43;7.50;;;;;;;;;;5094978;28;20039;-72
2023/10/03 14:29:43;;;;;;;10.15;7.38;;;;;;;;;;5096559;28;20024;-72
2023/10/03 14:32:14;;;;;;;11.43;7.20;;;;;;;;;;5096090;28;20023;-72
2023/10/03 14:34:39;;;;;;;11.65;7.60;;;;;;;;;;5090981;28;20048;-73
2023/10/03 14:37:05;;;;;;;9.88;7.43;;;;;;;;;;5096789;28;20026;-75
2023/10/03 14:39:32;;;;;;;10.00;6.80;;;;;;;;;;5095019;28;20031;-73